Time;durP1;ratioP1;P1;durP2;ratioP2;P2;SDS_P1;SDS_P2;PMS_P1;PMS_P2;Temp;Humidity;BMP_temperature;BMP_pressure;BME280_temperature;BME280_humidity;BME280_pressure;Samples;Min_cycle;Max_cycle;Signal;HPM_P1;HPM_P2
2023/01/26 00:01:29;;;;;;;28.80;14.65;;;;;;;5.35;59.47;100515.06;5264026;27;20092;-90
2023/01/26 00:03:55;;;;;;;30.83;14.93;;;;;;;5.54;59.49;100503.91;5264545;27;20073;-91
2023/01/26 00:06:21;;;;;;;34.45;15.20;;;;;;;5.47;59.49;100497.03;5263954;27;20424;-91
2023/01/26 00:08:53;;;;;;;34.20;15.35;;;;;;;5.37;59.48;100508.19;5263672;27;20075;-91
2023/01/26 00:11:25;;;;;;;32.97;15.82;;;;;;;5.23;59.46;100503.03;5264430;27;20071;-91
2023/01/26 00:13:51;;;;;;;29.98;14.85;;;;;;;5.30;59.47;100503.03;5265748;27;20086;-90
2023/01/26 00:16:16;;;;;;;32.47;14.82;;;;;;;5.39;59.49;100495.28;5264249;27;20068;-91
2023/01/26 00:18:45;;;;;;;30.60;14.45;;;;;;;5.59;59.49;100500.47;5264135;27;20391;-90
2023/01/26 00:21:12;;;;;;;28.92;14.40;;;;;;;5.53;59.49;100498.75;5264130;27;20053;-90
2023/01/26 00:23:37;;;;;;;29.95;14.90;;;;;;;5.63;59.49;100487.53;5264319;27;20083;-91
2023/01/26 00:26:10;;;;;;;30.80;14.38;;;;;;;5.65;59.50;100483.22;5264278;27;20064;-91
2023/01/26 00:28:35;;;;;;;30.67;14.40;;;;;;;5.65;59.50;100484.94;5265154;27;20346;-90
2023/01/26 00:31:05;;;;;;;27.48;14.90;;;;;;;5.44;59.48;100489.28;5264303;27;20066;-91
2023/01/26 00:33:30;;;;;;;32.28;14.40;;;;;;;5.71;59.50;100479.81;5264325;27;20079;-89
2023/01/26 00:35:56;;;;;;;31.37;15.93;;;;;;;5.82;59.50;100485.81;5300456;27;20065;-90
2023/01/26 00:38:21;;;;;;;34.15;17.45;;;;;;;6.00;59.52;100482.38;5264238;27;20104;-90
2023/01/26 00:40:47;;;;;;;36.67;16.60;;;;;;;6.09;59.52;100479.78;5263858;27;20108;-90
2023/01/26 00:43:12;;;;;;;32.72;15.55;;;;;;;5.91;59.51;100484.97;5299962;27;20465;-90
2023/01/26 00:45:37;;;;;;;37.78;18.08;;;;;;;5.84;59.51;100490.12;5281671;27;20082;-90
2023/01/26 00:48:03;;;;;;;38.20;16.98;;;;;;;5.63;59.49;100490.12;5264175;27;20060;-90
2023/01/26 00:50:29;;;;;;;38.38;17.08;;;;;;;5.44;59.48;100488.37;5264295;27;20061;-90
2023/01/26 00:52:54;;;;;;;38.20;17.92;;;;;;;5.44;59.48;100484.13;5264254;27;20120;-91
2023/01/26 00:55:20;;;;;;;39.13;17.77;;;;;;;5.34;59.47;100487.53;5264102;27;20112;-91
2023/01/26 00:57:45;;;;;;;41.10;18.60;;;;;;;5.40;59.48;100478.94;5299966;27;20412;-91
2023/01/26 01:00:15;;;;;;;36.40;18.00;;;;;;;5.57;59.49;100474.63;5263985;27;20077;-90
2023/01/26 01:02:42;;;;;;;40.50;17.23;;;;;;;5.57;59.49;100469.47;5265520;27;20030;-90
2023/01/26 01:05:08;;;;;;;33.83;16.87;;;;;;;5.30;59.47;100472.91;5264363;27;20131;-89
2023/01/26 01:07:33;;;;;;;42.20;18.85;;;;;;;5.20;59.47;100473.75;5263502;27;20075;-91
2023/01/26 01:09:59;;;;;;;45.70;20.60;;;;;;;5.18;59.47;100475.47;5263802;27;20057;-90
2023/01/26 01:12:25;;;;;;;41.25;19.52;;;;;;;5.15;59.46;100478.91;5282455;27;20069;-91
2023/01/26 01:14:50;;;;;;;38.83;18.55;;;;;;;5.19;59.47;100478.03;5263762;27;20430;-91
2023/01/26 01:17:16;;;;;;;35.33;16.58;;;;;;;5.58;59.49;100465.16;5263630;27;20071;-93
2023/01/26 01:19:41;;;;;;;33.22;15.52;;;;;;;5.63;59.49;100464.28;5263971;27;20048;-93
2023/01/26 01:22:07;;;;;;;36.28;15.50;;;;;;;5.46;59.49;100459.16;5263793;27;20096;-92
2023/01/26 01:24:34;;;;;;;31.70;16.55;;;;;;;5.34;59.47;100472.03;5264153;27;20076;-92
2023/01/26 01:27:00;;;;;;;35.85;16.67;;;;;;;5.44;59.48;100463.47;5264469;27;20071;-92
2023/01/26 01:29:25;;;;;;;34.10;16.42;;;;;;;5.43;59.48;100456.53;5264079;27;20049;-92
2023/01/26 01:31:51;;;;;;;35.58;16.83;;;;;;;5.23;59.47;100451.41;5264181;27;20060;-92
2023/01/26 01:34:16;;;;;;;36.08;17.48;;;;;;;5.17;59.47;100453.94;5263678;27;20116;-91
2023/01/26 01:36:42;;;;;;;29.90;14.25;;;;;;;5.18;59.47;100455.66;5263989;27;20079;-92
2023/01/26 01:39:07;;;;;;;30.17;14.68;;;;;;;5.15;59.46;100462.56;5264136;27;20064;-92
2023/01/26 01:41:32;;;;;;;35.67;15.77;;;;;;;5.08;59.46;100456.53;5264014;27;20116;-93
2023/01/26 01:44:20;;;;;;;28.35;15.32;;;;;;;5.11;59.46;100453.09;5264272;27;20072;-92
2023/01/26 01:46:53;;;;;;;34.60;15.63;;;;;;;5.31;59.47;100450.53;5281687;27;20080;-92
2023/01/26 01:49:19;;;;;;;31.12;15.57;;;;;;;5.27;59.47;100444.53;5281850;27;20041;-92
2023/01/26 01:52:11;;;;;;;30.12;15.18;;;;;;;5.26;59.47;100442.78;5282115;27;20061;-93
2023/01/26 01:54:47;;;;;;;30.88;14.13;;;;;;;5.18;59.47;100441.91;5281865;27;20034;-93
2023/01/26 01:57:16;;;;;;;36.28;16.55;;;;;;;5.17;59.47;100441.03;5265416;27;20079;-92
2023/01/26 01:59:49;;;;;;;31.85;15.55;;;;;;;5.14;59.47;100440.19;5264806;27;20065;-92
2023/01/26 02:02:14;;;;;;;30.98;14.87;;;;;;;5.33;59.48;100439.34;5264112;27;20073;-91
2023/01/26 02:04:40;;;;;;;35.92;15.18;;;;;;;5.29;59.47;100427.31;5263937;27;20388;-91
2023/01/26 02:07:06;;;;;;;30.45;13.65;;;;;;;5.32;59.48;100426.44;5263767;27;20041;-90
2023/01/26 02:12:20;;;;;;;29.42;13.02;;;;;;;5.66;59.49;100412.63;5285291;27;20083;-92
2023/01/26 02:14:45;;;;;;;24.75;12.65;;;;;;;5.60;59.49;100422.97;5264038;27;20083;-91
2023/01/26 02:17:11;;;;;;;30.37;12.85;;;;;;;5.72;59.50;100409.22;5263802;27;20100;-92
2023/01/26 02:20:01;;;;;;;25.73;12.77;;;;;;;5.72;59.50;100414.38;5281825;27;20105;-91
2023/01/26 02:22:40;;;;;;;33.72;14.57;;;;;;;5.73;59.49;100408.34;5281932;27;20065;-92
2023/01/26 02:25:26;;;;;;;30.58;15.48;;;;;;;5.37;59.47;100404.06;5281957;27;20077;-91
2023/01/26 02:27:51;;;;;;;30.27;15.88;;;;;;;5.29;59.47;100401.50;5265495;27;20040;-91
2023/01/26 02:30:17;;;;;;;29.20;14.43;;;;;;;5.19;59.47;100400.63;5263925;27;20087;-92
2023/01/26 02:32:42;;;;;;;29.33;14.77;;;;;;;5.36;59.48;100398.03;5263786;27;20061;-91
2023/01/26 02:35:08;;;;;;;31.75;14.90;;;;;;;5.36;59.48;100392.87;5263957;27;20087;-91
2023/01/26 02:37:33;;;;;;;35.33;15.85;;;;;;;5.37;59.48;100392.00;5263589;27;20061;-91
2023/01/26 02:40:04;;;;;;;30.05;14.27;;;;;;;5.28;59.47;100386.00;5263340;27;20291;-92
2023/01/26 02:42:40;;;;;;;32.33;16.58;;;;;;;5.13;59.46;100377.41;5263952;27;20073;-91
2023/01/26 02:45:11;;;;;;;36.25;18.92;;;;;;;5.14;59.46;100376.53;5266931;27;20065;-91
2023/01/26 02:47:37;;;;;;;44.53;20.73;;;;;;;5.04;59.46;100376.53;5264778;27;20061;-92
2023/01/26 02:50:02;;;;;;;32.17;16.73;;;;;;;5.16;59.46;100373.94;5264478;27;20041;-92
2023/01/26 02:52:29;;;;;;;34.22;17.35;;;;;;;5.18;59.47;100367.94;5263918;27;20062;-91
2023/01/26 02:57:39;;;;;;;32.05;15.85;;;;;;;5.14;59.47;100358.47;5286043;27;20067;-91
2023/01/26 03:00:10;;;;;;;34.33;15.32;;;;;;;5.07;59.46;100358.47;5264277;27;20080;-90
2023/01/26 03:02:35;;;;;;;34.70;15.73;;;;;;;5.09;59.46;100351.59;5265238;27;20061;-91
2023/01/26 03:05:00;;;;;;;32.15;14.60;;;;;;;5.01;59.45;100350.75;5264107;27;20064;-92
2023/01/26 03:07:26;;;;;;;36.13;15.52;;;;;;;5.05;59.46;100345.59;5264201;27;20075;-91
2023/01/26 03:09:52;;;;;;;30.85;15.52;;;;;;;5.04;59.46;100345.59;5264446;27;20060;-91
2023/01/26 03:12:17;;;;;;;33.22;15.43;;;;;;;5.12;59.46;100343.84;5264817;27;20108;-92
2023/01/26 03:14:43;;;;;;;27.17;13.93;;;;;;;5.11;59.46;100344.72;5264424;27;20052;-92
2023/01/26 03:17:08;;;;;;;30.60;14.27;;;;;;;5.07;59.46;100346.44;5264323;27;20071;-92
2023/01/26 03:27:46;;;;;;;30.98;14.80;;;;;;;5.14;59.46;100331.81;5285562;27;20071;-91
2023/01/26 03:30:13;;;;;;;29.12;15.40;;;;;;;5.23;59.46;100335.25;5264461;27;20045;-90
2023/01/26 03:32:38;;;;;;;32.83;15.13;;;;;;;5.38;59.48;100324.03;5264399;27;20426;-92
2023/01/26 03:35:04;;;;;;;34.30;14.70;;;;;;;5.43;59.48;100316.28;5264440;27;20119;-91
2023/01/26 03:37:35;;;;;;;33.13;15.60;;;;;;;5.54;59.49;100319.72;5264489;27;20102;-90
2023/01/26 03:56:38;;;;;;;29.55;13.77;;;;;;;5.40;59.48;100298.22;5285526;27;20747;-93
2023/01/26 03:59:08;;;;;;;28.77;13.62;;;;;;;5.38;59.47;100300.78;5264733;27;20124;-92
2023/01/26 04:01:35;;;;;;;29.08;13.18;;;;;;;5.31;59.48;100296.53;5265740;27;20106;-92
2023/01/26 04:09:40;;;;;;;24.48;11.75;;;;;;;5.27;59.47;100294.81;5286514;27;20075;-94
2023/01/26 04:12:09;;;;;;;25.12;11.48;;;;;;;5.39;59.48;100288.75;5265931;27;20057;-93
2023/01/26 04:22:59;;;;;;;20.58;9.93;;;;;;;5.30;59.47;100288.78;5285963;27;20035;-93
2023/01/26 04:25:27;;;;;;;23.27;10.95;;;;;;;5.16;59.47;100281.91;5284482;27;20077;-93
2023/01/26 04:28:06;;;;;;;21.15;10.65;;;;;;;5.22;59.46;100278.47;5265855;27;20147;-94
2023/01/26 04:31:03;;;;;;;23.95;11.55;;;;;;;5.35;59.47;100281.88;5265497;27;20717;-94
2023/01/26 04:33:29;;;;;;;25.33;11.77;;;;;;;5.36;59.47;100281.88;5283926;27;20049;-92
2023/01/26 04:35:54;;;;;;;22.17;10.43;;;;;;;5.37;59.47;100277.56;5264050;27;20624;-92
2023/01/26 04:38:20;;;;;;;26.45;11.30;;;;;;;5.18;59.47;100271.59;5264445;27;20124;-91
2023/01/26 04:40:52;;;;;;;20.83;10.05;;;;;;;5.18;59.47;100272.44;5264289;27;20404;-92
2023/01/26 04:43:17;;;;;;;19.05;9.57;;;;;;;5.15;59.46;100269.88;5264602;27;20068;-92
2023/01/26 04:45:43;;;;;;;18.90;9.98;;;;;;;5.26;59.47;100275.03;5264444;27;20065;-93
2023/01/26 04:48:15;;;;;;;19.12;9.88;;;;;;;5.11;59.46;100272.47;5263631;27;20061;-94
2023/01/26 04:50:41;;;;;;;21.83;10.65;;;;;;;5.17;59.47;100268.13;5283010;27;20057;-92
2023/01/26 04:53:06;;;;;;;20.15;10.10;;;;;;;5.10;59.47;100274.19;5264570;27;20084;-91
2023/01/26 04:55:32;;;;;;;23.27;10.15;;;;;;;5.17;59.47;100270.72;5264249;27;20069;-92
2023/01/26 04:57:57;;;;;;;17.48;9.45;;;;;;;5.26;59.47;100271.59;5264519;27;20421;-92
2023/01/26 05:00:57;;;;;;;;;;;;;;;;;;;;;
2023/01/26 05:03:18;;;;;;;18.25;9.43;;;;;;;5.36;59.47;100270.69;5279457;27;20048;-93
2023/01/26 05:05:46;;;;;;;20.27;9.90;;;;;;;5.12;59.47;100269.88;5266452;27;20079;-93
2023/01/26 05:08:21;;;;;;;27.00;10.95;;;;;;;5.26;59.48;100272.44;5264310;27;20795;-93
2023/01/26 05:11:05;;;;;;;19.65;10.00;;;;;;;5.35;59.47;100271.56;5266829;27;20059;-96
2023/01/26 05:13:34;;;;;;;24.55;11.02;;;;;;;5.18;59.47;100266.41;5293451;27;20047;-96
2023/01/26 05:16:02;;;;;;;21.08;10.10;;;;;;;5.23;59.47;100259.56;5277184;27;20039;-96
2023/01/26 05:19:13;;;;;;;21.75;10.30;;;;;;;5.31;59.47;100267.25;5284765;27;20064;-93
2023/01/26 05:26:14;;;;;;;24.30;10.27;;;;;;;5.10;59.46;100261.28;5213967;27;20141;-95
2023/01/26 05:28:39;;;;;;;22.67;9.70;;;;;;;5.28;59.47;100264.69;5219390;27;20076;-92
2023/01/26 05:31:04;;;;;;;21.37;10.77;;;;;;;5.15;59.46;100259.53;5264420;27;20064;-94
2023/01/26 05:33:30;;;;;;;22.87;10.73;;;;;;;5.01;59.46;100260.44;5264489;27;20087;-95
2023/01/26 05:35:55;;;;;;;20.95;10.88;;;;;;;5.03;59.46;100264.75;5264667;27;20053;-93
2023/01/26 05:38:23;;;;;;;27.77;10.77;;;;;;;5.18;59.47;100264.69;5264213;27;20064;-93
2023/01/26 05:40:48;;;;;;;19.60;9.93;;;;;;;5.00;59.45;100264.75;5264562;27;20057;-90
2023/01/26 05:43:17;;;;;;;22.80;11.05;;;;;;;5.23;59.46;100263.00;5264539;27;20061;-90
2023/01/26 05:45:42;;;;;;;20.73;10.25;;;;;;;5.26;59.48;100276.75;5264266;27;20140;-89
2023/01/26 05:48:08;;;;;;;22.83;10.52;;;;;;;5.15;59.46;100269.00;5264104;27;20195;-88
2023/01/26 05:50:33;;;;;;;25.95;11.07;;;;;;;5.06;59.46;100272.47;5263875;27;20111;-90
2023/01/26 05:52:59;;;;;;;22.00;9.68;;;;;;;5.23;59.46;100270.72;5264054;27;20416;-89
2023/01/26 05:55:25;;;;;;;22.80;10.07;;;;;;;5.39;59.49;100268.97;5300339;27;20128;-90
2023/01/26 05:57:51;;;;;;;19.33;10.32;;;;;;;5.37;59.47;100275.00;5264339;27;20069;-89
2023/01/26 06:00:17;;;;;;;18.92;9.65;;;;;;;5.22;59.46;100274.19;5264153;27;20074;-90
2023/01/26 06:02:42;;;;;;;20.42;10.48;;;;;;;5.23;59.46;100277.63;5263964;27;20080;-90
2023/01/26 06:05:08;;;;;;;29.35;11.73;;;;;;;5.15;59.46;100275.03;5264555;27;20138;-90
2023/01/26 06:07:33;;;;;;;23.12;10.65;;;;;;;5.22;59.46;100275.91;5264279;27;20069;-89
2023/01/26 06:09:59;;;;;;;23.25;10.95;;;;;;;5.13;59.46;100281.91;5264254;27;20102;-90
2023/01/26 06:12:24;;;;;;;21.62;10.88;;;;;;;5.10;59.46;100269.03;5263864;27;20091;-90
2023/01/26 06:14:50;;;;;;;21.45;9.98;;;;;;;5.20;59.47;100280.19;5263813;27;20057;-90
2023/01/26 06:17:16;;;;;;;22.75;10.95;;;;;;;5.02;59.46;100269.91;5263937;27;20423;-89
2023/01/26 06:19:41;;;;;;;23.83;10.48;;;;;;;5.17;59.47;100268.13;5262882;27;20068;-90
2023/01/26 06:22:07;;;;;;;30.70;13.23;;;;;;;5.15;59.46;100275.03;5264028;27;20112;-90
2023/01/26 06:24:33;;;;;;;26.77;12.52;;;;;;;5.24;59.48;100267.28;5264375;27;20049;-89
2023/01/26 06:26:59;;;;;;;30.17;13.15;;;;;;;5.22;59.46;100269.00;5263471;27;20060;-89
2023/01/26 06:29:24;;;;;;;25.20;10.55;;;;;;;5.32;59.48;100264.69;5263354;27;20053;-89
2023/01/26 06:31:50;;;;;;;22.42;10.48;;;;;;;5.47;59.48;100263.78;5263873;27;20072;-90
2023/01/26 06:34:15;;;;;;;18.92;9.52;;;;;;;5.30;59.47;100273.28;5263683;27;20073;-89
2023/01/26 06:36:41;;;;;;;19.12;9.57;;;;;;;5.19;59.47;100265.56;5264010;27;20083;-90
2023/01/26 06:39:06;;;;;;;21.02;10.10;;;;;;;5.30;59.47;100263.81;5263897;27;20065;-90
2023/01/26 06:41:32;;;;;;;25.05;9.52;;;;;;;5.36;59.47;100263.81;5263647;27;20071;-89
2023/01/26 06:43:57;;;;;;;22.00;9.43;;;;;;;5.20;59.47;100267.28;5263705;27;20103;-90
2023/01/26 06:46:23;;;;;;;28.17;10.90;;;;;;;5.28;59.47;100264.69;5299751;27;20072;-89
2023/01/26 06:48:49;;;;;;;22.35;9.95;;;;;;;5.16;59.46;100265.56;5263308;27;20417;-89
2023/01/26 06:51:14;;;;;;;21.23;10.48;;;;;;;5.09;59.46;100264.72;5263435;27;20077;-89
2023/01/26 06:53:46;;;;;;;20.45;9.25;;;;;;;5.30;59.47;100262.97;5299566;27;20295;-89
2023/01/26 06:56:11;;;;;;;21.50;9.32;;;;;;;5.19;59.47;100255.22;5264730;27;20418;-90
2023/01/26 06:58:37;;;;;;;26.87;10.98;;;;;;;5.23;59.46;100252.66;5263606;27;20104;-89
2023/01/26 07:01:02;;;;;;;24.48;10.00;;;;;;;5.14;59.46;100251.81;5263709;27;20116;-90
2023/01/26 07:03:28;;;;;;;22.92;9.90;;;;;;;5.23;59.46;100257.84;5263561;27;20085;-90
2023/01/26 07:05:53;;;;;;;19.33;8.52;;;;;;;5.10;59.46;100256.12;5264252;27;20064;-90
2023/01/26 07:08:19;;;;;;;22.37;10.10;;;;;;;5.09;59.46;100263.87;5263895;27;20496;-89
2023/01/26 07:10:44;;;;;;;19.33;9.90;;;;;;;5.04;59.46;100256.12;5264012;27;20060;-90
2023/01/26 07:13:09;;;;;;;22.67;9.75;;;;;;;5.00;59.46;100251.84;5281399;27;20064;-89
2023/01/26 07:15:35;;;;;;;22.50;10.00;;;;;;;5.13;59.46;100256.12;5263672;27;20079;-89
2023/01/26 07:18:01;;;;;;;21.02;8.80;;;;;;;5.21;59.46;100251.81;5263839;27;20903;-89
2023/01/26 07:20:26;;;;;;;19.83;9.07;;;;;;;5.21;59.46;100250.97;5263549;27;20106;-90
2023/01/26 07:22:51;;;;;;;20.05;9.35;;;;;;;5.05;59.46;100252.69;5263467;27;20353;-88
2023/01/26 07:25:17;;;;;;;23.58;11.57;;;;;;;5.03;59.46;100253.56;5263712;27;20096;-90
2023/01/26 07:27:43;;;;;;;23.42;10.38;;;;;;;4.94;59.46;100242.38;5262013;27;20148;-90
2023/01/26 07:30:09;;;;;;;19.48;9.77;;;;;;;5.23;59.46;100246.66;5262148;27;20112;-90
2023/01/26 07:32:35;;;;;;;21.40;10.07;;;;;;;5.04;59.46;100247.53;5262881;27;20061;-89
2023/01/26 07:35:00;;;;;;;19.10;9.05;;;;;;;5.15;59.46;100245.78;5263277;27;20065;-89
2023/01/26 07:37:29;;;;;;;21.45;9.90;;;;;;;5.20;59.47;100246.63;5262982;27;20068;-89
2023/01/26 07:39:54;;;;;;;19.10;9.45;;;;;;;5.24;59.46;100243.19;5262909;27;20434;-90
2023/01/26 07:42:20;;;;;;;17.73;8.63;;;;;;;5.20;59.47;100247.53;5263060;27;20057;-90
2023/01/26 07:44:45;;;;;;;20.92;8.73;;;;;;;5.42;59.48;100240.53;5263045;27;20116;-90
2023/01/26 07:47:11;;;;;;;19.40;9.68;;;;;;;5.27;59.48;100234.59;5262817;27;20135;-89
2023/01/26 07:49:36;;;;;;;20.40;9.45;;;;;;;5.29;59.47;100236.31;5263607;27;20488;-90
2023/01/26 07:52:01;;;;;;;18.17;9.98;;;;;;;5.30;59.47;100235.44;5263201;27;20049;-89
2023/01/26 07:54:27;;;;;;;18.75;9.25;;;;;;;5.31;59.47;100249.19;5262975;27;20449;-90
2023/01/26 07:56:53;;;;;;;21.60;9.75;;;;;;;5.40;59.48;100239.69;5263076;27;20090;-90
2023/01/26 07:59:19;;;;;;;15.48;8.48;;;;;;;5.38;59.47;100241.44;5263168;27;20034;-87
2023/01/26 08:01:45;;;;;;;16.75;8.65;;;;;;;5.59;59.49;100240.50;5263468;27;20061;-90
2023/01/26 08:04:11;;;;;;;16.45;8.23;;;;;;;5.40;59.48;100234.53;5263259;27;20541;-90
2023/01/26 08:06:36;;;;;;;16.52;8.10;;;;;;;5.54;59.49;100237.06;5263174;27;20116;-90
2023/01/26 08:09:02;;;;;;;15.05;7.78;;;;;;;5.58;59.49;100243.94;5263054;27;20068;-90
2023/01/26 08:11:27;;;;;;;15.85;7.32;;;;;;;5.59;59.49;100240.50;5262821;27;20069;-89
2023/01/26 08:13:53;;;;;;;18.15;8.43;;;;;;;5.67;59.49;100240.44;5263035;27;20128;-90
2023/01/26 08:16:19;;;;;;;16.98;8.50;;;;;;;5.64;59.50;100236.16;5263175;27;20072;-90
2023/01/26 08:18:45;;;;;;;15.57;8.40;;;;;;;5.67;59.49;100233.56;5263306;27;20078;-89
2023/01/26 08:21:11;;;;;;;13.90;7.65;;;;;;;5.46;59.48;100236.25;5263022;27;20053;-90
2023/01/26 08:23:36;;;;;;;20.27;8.93;;;;;;;5.55;59.49;100234.50;5263432;27;20122;-89
2023/01/26 08:26:05;;;;;;;18.20;7.70;;;;;;;5.62;59.49;100237.03;5262835;27;20089;-89
2023/01/26 08:28:31;;;;;;;17.83;8.55;;;;;;;5.72;59.50;100230.97;5263138;27;20069;-89
2023/01/26 08:31:05;;;;;;;15.80;8.27;;;;;;;5.77;59.50;100224.06;5280915;27;20105;-90
2023/01/26 08:33:31;;;;;;;16.33;8.35;;;;;;;5.80;59.50;100229.22;5263280;27;20069;-88
2023/01/26 08:36:01;;;;;;;16.55;8.38;;;;;;;5.90;59.50;100227.47;5262976;27;20076;-90
2023/01/26 08:38:29;;;;;;;16.55;8.27;;;;;;;5.78;59.51;100236.97;5262907;27;20370;-90
2023/01/26 08:40:54;;;;;;;14.85;8.18;;;;;;;5.87;59.51;100236.91;5262906;27;20057;-90
2023/01/26 08:43:19;;;;;;;21.08;9.70;;;;;;;5.91;59.51;100231.75;5298968;27;20069;-90
2023/01/26 08:45:46;;;;;;;19.42;9.07;;;;;;;5.87;59.51;100229.16;5263171;27;20401;-90
2023/01/26 08:48:11;;;;;;;18.77;9.02;;;;;;;5.66;59.49;100234.44;5263005;27;20075;-90
2023/01/26 08:50:37;;;;;;;15.18;7.60;;;;;;;5.84;59.51;100226.59;5263544;27;20076;-90
2023/01/26 08:53:02;;;;;;;17.33;9.13;;;;;;;5.90;59.50;100224.88;5262700;27;20119;-90
2023/01/26 08:55:31;;;;;;;19.65;8.60;;;;;;;5.79;59.50;100225.78;5263095;27;20156;-90
2023/01/26 08:57:56;;;;;;;16.10;7.78;;;;;;;5.95;59.51;100224.00;5263985;27;20823;-90
2023/01/26 09:00:22;;;;;;;20.62;8.77;;;;;;;5.87;59.50;100226.56;5263578;27;20100;-90
2023/01/26 09:02:48;;;;;;;17.58;9.05;;;;;;;5.74;59.49;100235.28;5262794;27;20084;-89
2023/01/26 09:05:13;;;;;;;16.85;9.18;;;;;;;5.72;59.50;100228.41;5263111;27;20116;-90
2023/01/26 09:07:39;;;;;;;18.85;9.07;;;;;;;5.70;59.50;100231.00;5262772;27;20374;-90
2023/01/26 09:10:05;;;;;;;18.55;8.68;;;;;;;5.75;59.50;100234.41;5262857;27;20319;-89
2023/01/26 09:12:30;;;;;;;15.50;8.73;;;;;;;5.82;59.50;100230.06;5262919;27;20092;-89
2023/01/26 09:14:56;;;;;;;22.58;9.02;;;;;;;5.73;59.49;100230.13;5263008;27;20096;-89
2023/01/26 09:17:21;;;;;;;21.45;8.38;;;;;;;5.79;59.50;100241.28;5262799;27;20057;-90
2023/01/26 09:19:46;;;;;;;14.38;6.85;;;;;;;5.67;59.49;100236.16;5262999;27;20405;-90
2023/01/26 09:22:12;;;;;;;16.50;7.22;;;;;;;5.75;59.49;100231.81;5262839;27;20488;-89
2023/01/26 09:24:37;;;;;;;15.07;7.75;;;;;;;5.71;59.50;100237.88;5262907;27;20068;-90
2023/01/26 09:27:03;;;;;;;16.25;7.90;;;;;;;5.69;59.50;100233.59;5262643;27;20128;-90
2023/01/26 09:29:28;;;;;;;14.63;8.63;;;;;;;5.73;59.49;100233.56;5262800;27;20106;-89
2023/01/26 09:31:54;;;;;;;19.48;8.05;;;;;;;5.67;59.49;100233.56;5280909;27;20085;-89
2023/01/26 09:34:19;;;;;;;19.30;7.95;;;;;;;5.54;59.49;100225.03;5262644;27;20083;-90
2023/01/26 09:36:45;;;;;;;15.00;8.88;;;;;;;5.46;59.48;100225.94;5263078;27;20077;-89
2023/01/26 09:39:10;;;;;;;18.27;8.30;;;;;;;5.73;59.50;100227.53;5298673;27;20102;-89
2023/01/26 09:41:51;;;;;;;16.75;7.97;;;;;;;5.64;59.49;100222.38;5262623;27;20139;-90
2023/01/26 09:44:22;;;;;;;20.02;9.88;;;;;;;5.77;59.51;100216.31;5299268;27;20460;-90
2023/01/26 09:47:10;;;;;;;19.62;8.15;;;;;;;5.84;59.51;100212.81;5265809;27;20080;-90
2023/01/26 09:49:44;;;;;;;18.42;8.60;;;;;;;5.84;59.51;100210.25;5283990;27;20053;-90
2023/01/26 09:52:19;;;;;;;17.42;8.80;;;;;;;5.82;59.50;100206.81;5284429;27;20065;-90
2023/01/26 09:54:48;;;;;;;19.25;8.30;;;;;;;5.94;59.51;100208.50;5267656;27;20115;-89
2023/01/26 09:57:35;;;;;;;19.58;8.48;;;;;;;5.83;59.51;100209.38;5266644;27;20057;-89
2023/01/26 10:00:31;;;;;;;19.62;9.00;;;;;;;5.90;59.52;100205.06;5266643;27;20533;-90
2023/01/26 10:03:15;;;;;;;18.17;8.75;;;;;;;6.16;59.53;100204.94;5282384;27;20084;-90
2023/01/26 10:05:48;;;;;;;20.50;8.60;;;;;;;6.29;59.53;100185.84;5302999;27;20096;-90
2023/01/26 10:08:14;;;;;;;18.87;8.25;;;;;;;6.20;59.52;100177.31;5284614;27;20065;-90
2023/01/26 10:10:54;;;;;;;19.75;9.30;;;;;;;6.22;59.53;100176.44;5266581;27;20076;-90
2023/01/26 10:13:19;;;;;;;21.65;8.25;;;;;;;6.26;59.52;100172.09;5284955;27;20083;-90
2023/01/26 10:15:47;;;;;;;18.55;8.30;;;;;;;6.33;59.53;100171.19;5266029;27;20410;-90
2023/01/26 10:18:18;;;;;;;16.58;8.82;;;;;;;6.18;59.52;100166.16;5266451;27;20469;-90
2023/01/26 10:20:49;;;;;;;20.35;8.32;;;;;;;6.14;59.52;100165.28;5266504;27;20114;-90
2023/01/26 10:23:28;;;;;;;19.77;9.10;;;;;;;6.04;59.51;100158.47;5266336;27;20657;-89
2023/01/26 10:25:57;;;;;;;18.20;8.80;;;;;;;6.22;59.53;100160.94;5284778;27;20129;-90
2023/01/26 10:28:22;;;;;;;21.33;9.65;;;;;;;6.17;59.52;100159.25;5266471;27;20052;-89
2023/01/26 10:30:50;;;;;;;19.90;8.70;;;;;;;6.08;59.52;100150.69;5302430;27;20496;-90
2023/01/26 10:33:19;;;;;;;19.37;9.02;;;;;;;6.26;59.52;100149.69;5258624;27;159014;-90
2023/01/26 10:35:44;;;;;;;18.80;9.73;;;;;;;6.31;59.53;100140.16;5250775;27;20087;-90
2023/01/26 10:38:45;;;;;;;18.33;8.98;;;;;;;6.11;59.52;100137.75;5265972;27;20443;-89
2023/01/26 10:41:15;;;;;;;20.65;9.85;;;;;;;6.06;59.52;100134.34;5176142;27;20121;-89
2023/01/26 10:43:41;;;;;;;;;;;;;;;6.12;59.52;100136.88;5284056;27;20090;-90
2023/01/26 10:46:40;;;;;;;23.77;9.98;;;;;;;5.98;59.51;100137.84;5284709;27;19968;-90
2023/01/26 10:49:08;;;;;;;18.95;9.18;;;;;;;6.06;59.52;100136.06;5240961;27;20110;-90
2023/01/26 10:51:38;;;;;;;21.87;10.07;;;;;;;6.24;59.52;100125.59;5302289;27;20048;-90
2023/01/26 10:54:12;;;;;;;18.85;9.10;;;;;;;6.10;59.52;100130.00;5266155;27;20029;-90
2023/01/26 10:56:58;;;;;;;18.20;9.90;;;;;;;6.15;59.53;100129.13;5302303;27;20029;-90
2023/01/26 10:59:24;;;;;;;18.35;9.57;;;;;;;6.13;59.51;100127.38;5284253;27;20048;-89
2023/01/26 11:01:54;;;;;;;19.67;10.50;;;;;;;6.27;59.52;100122.97;5302408;27;20378;-90
2023/01/26 11:04:19;;;;;;;19.83;10.23;;;;;;;6.24;59.53;100125.59;5266780;27;20069;-89
2023/01/26 11:06:44;;;;;;;19.75;9.95;;;;;;;6.09;59.52;100123.13;5266121;27;20116;-89
2023/01/26 11:09:13;;;;;;;21.40;9.93;;;;;;;6.15;59.52;100113.59;5266687;27;20124;-90
2023/01/26 11:11:38;;;;;;;23.62;10.25;;;;;;;6.19;59.52;100114.44;5303407;27;20076;-90
2023/01/26 11:14:17;;;;;;;19.27;10.05;;;;;;;6.21;59.53;100117.88;5266793;27;20323;-90
2023/01/26 11:17:05;;;;;;;20.40;10.13;;;;;;;6.36;59.53;100115.13;5267002;27;20037;-90
2023/01/26 11:19:56;;;;;;;19.37;9.32;;;;;;;6.46;59.54;100106.44;5273290;27;20843;-90
2023/01/26 11:22:31;;;;;;;22.85;10.73;;;;;;;6.35;59.54;100108.25;5288360;27;20075;-90
2023/01/26 11:25:24;;;;;;;19.98;9.32;;;;;;;6.45;59.54;100093.50;5285432;27;20726;-90
2023/01/26 11:28:12;;;;;;;18.27;9.60;;;;;;;6.54;59.54;100092.56;5268040;27;20078;-90
2023/01/26 11:30:56;;;;;;;20.12;10.50;;;;;;;6.31;59.53;100093.63;5267605;27;20067;-90
2023/01/26 11:33:29;;;;;;;29.60;12.32;;;;;;;6.38;59.53;100092.69;5267731;27;20087;-90
2023/01/26 11:36:10;;;;;;;27.13;10.50;;;;;;;6.27;59.52;100091.94;5266922;27;20069;-90
2023/01/26 11:38:41;;;;;;;25.98;11.75;;;;;;;6.59;59.55;100091.63;5267369;27;20064;-89
2023/01/26 11:41:19;;;;;;;18.45;9.73;;;;;;;6.59;59.55;100083.00;5267401;27;20052;-90
2023/01/26 11:43:59;;;;;;;22.45;10.63;;;;;;;6.70;59.55;100087.22;5303648;27;20044;-89
2023/01/26 11:46:53;;;;;;;22.80;10.35;;;;;;;6.67;59.55;100088.97;5285448;27;20057;-90
2023/01/26 11:49:19;;;;;;;23.45;11.00;;;;;;;6.53;59.54;100081.34;5269627;27;20115;-90
2023/01/26 11:52:03;;;;;;;34.08;24.12;;;;;;;6.53;59.54;100083.09;5302862;27;20060;-90
2023/01/26 11:54:36;;;;;;;21.98;11.07;;;;;;;6.33;59.53;100060.84;5284897;27;20605;-89
2023/01/26 11:57:36;;;;;;;23.12;10.43;;;;;;;6.37;59.53;100059.09;5267331;27;20681;-90
2023/01/26 12:00:06;;;;;;;24.83;10.57;;;;;;;6.36;59.53;100063.41;5302789;27;20095;-90
2023/01/26 12:02:33;;;;;;;;;;;;;;;6.31;59.53;100060.03;5284980;27;20099;-90
2023/01/26 12:05:01;;;;;;;20.37;9.18;;;;;;;6.28;59.52;100051.44;5285162;27;19997;-90
2023/01/26 12:07:29;;;;;;;21.60;10.20;;;;;;;6.17;59.52;100043.81;5267139;27;20084;-90
2023/01/26 12:09:55;;;;;;;19.73;9.43;;;;;;;6.11;59.51;100034.34;5266578;27;20693;-90
2023/01/26 12:12:26;;;;;;;23.75;10.70;;;;;;;6.17;59.52;100033.47;5266736;27;20126;-90
2023/01/26 12:14:55;;;;;;;22.05;10.48;;;;;;;6.13;59.52;100032.63;5284744;27;20074;-90
2023/01/26 12:17:38;;;;;;;19.15;9.32;;;;;;;6.17;59.52;100033.47;5303180;27;20082;-90
2023/01/26 12:20:25;;;;;;;21.23;10.05;;;;;;;6.32;59.53;100025.53;5285159;27;20120;-90